Tiempo atmosférico en la estación meteorológica de Chipiona, Cádiz (10 m.)



Fecha
DESCASC
Temp. máxima en grados centígrados (hora)
DESCASC
Temp. mínima en grados centígrados (hora)
DESCASC
Temp. media en grados centígrados
DESCASC
Racha de viento máxima en m/sg (hora)
DESCASC
Velocidad máxima media en intervalos de 10 minutos(hora)
DESCASC
Precipitaciones diarias en mm
DESCASC
Precipitaciones de 00:00 a 06:00 en mm
DESCASC
Precipitaciones de 06:00 a 12:00 en mm
DESCASC
Precipitaciones de 12:00 a 18:00 en mm
DESCASC
Precipitaciones de 18:00 a 24:00 en mm
DESCASC
22-04-2019 20.6 (16:20) 11.9 (07:10) 16.3 13.89 (19:00) 8.89 (19:20) 0 0 0 0 0
21-04-2019 21.9 (17:30) 12.5 (05:20) 17.2 8.61 (12:40) 5.56 (19:50) 0 0 0 0 0
20-04-2019 21.8 (18:20) 11.3 (02:30) 16.5 8.89 (15:40) 4.72 (20:00) 0 0 0 0 0
19-04-2019 20.5 (15:40) 9.8 (07:50) 15.2 7.5 (16:30) 4.72 (14:10) 0 0 0 0 0
18-04-2019 18.6 (16:50) 12.6 (00:00) 15.6 10 (16:30) 6.67 (16:20) 1.8 0 1.8 0 0
17-04-2019 21.8 (14:00) 14.7 (00:00) 18.2 15.56 (09:40) 9.72 (11:10) 0 0 0 0 0
16-04-2019 20.6 (17:30) 10.1 (00:00) 15.4 8.06 (00:10) 5.56 (00:10) 0 0 0 0 0
15-04-2019 21.5 (16:00) 11.3 (00:00) 16.4 13.06 (17:10) 8.33 (17:00) 0 0 0 0 0
14-04-2019 23.5 (13:40) 10.7 (00:00) 17.1 6.11 (14:10) 4.17 (17:40) 0 0 0 0 0
13-04-2019 21.5 (13:40) 9.6 (00:00) 15.6 8.06 (16:30) 5.56 (16:30) 0 0 0 0 0
12-04-2019 20.2 (16:40) 9.8 (00:00) 15 8.61 (16:10) 6.39 (16:10) 0 0 0 0 0
11-04-2019 19.3 (17:50) 12.1 (00:00) 15.7 10.56 (00:40) 6.67 (00:40) 0 0 0 0 0
10-04-2019 18.2 (16:50) 12.1 (00:00) 15.2 11.39 (00:10) 8.06 (18:10) 0 0 0 0 0
09-04-2019 18.2 (15:50) 14.1 (00:00) 16.2 11.67 (17:30) 7.5 (17:40) 0 0 0 0 0
08-04-2019 18 (13:00) 14.8 (00:00) 16.4 11.11 (20:50) 6.94 (20:50) 3.4 0.2 0 3.2 0
07-04-2019 18.3 (13:20) 13.8 (00:00) 16 13.89 (18:10) 8.89 (18:10) 6.2 0 0 6.2 0
06-04-2019 17 (17:20) 11.7 (00:00) 14.3 14.72 (18:20) 10 (18:30) 0.8 0.2 0.6 0 0
05-04-2019 15.4 (17:30) 12 (00:00) 13.7 15.83 (17:40) 10 (20:20) 10 3.6 6 0.4 0
04-04-2019 17.1 (17:20) 10.3 (00:00) 13.7 12.78 (22:30) 8.33 (22:20) 0 0 0 0 0
03-04-2019 19.6 (18:00) 9.7 (00:00) 14.7 9.44 (14:30) 6.11 (14:50) 0 0 0 0 0
02-04-2019 20.2 (14:50) 10.7 (00:00) 15.5 6.67 (22:20) 4.44 (17:40) 0 0 0 0 0
01-04-2019 20.3 (13:50) 13.4 (00:00) 16.8 10 (14:30) 5.83 (14:30) 0 0 0 0 0
31-03-2019 21.3 (16:50) 12.9 (00:00) 17.1 7.5 (19:10) 4.72 (17:10) 0 0 0 0 0
30-03-2019 23.1 (14:40) 11 (00:00) 17.1 14.17 (00:10) 8.61 (18:50) 0 0 0 0 0
29-03-2019 21.5 (13:40) 7.9 (00:00) 14.7 14.72 (14:30) 8.61 (15:00) 0 0 0 0 0
28-03-2019 22.2 (14:10) 7.8 (00:00) 15 13.89 (17:50) 8.06 (18:10) 0 0 0 0 0
27-03-2019 21.3 (14:30) 13.2 (00:00) 17.2 16.11 (01:50) 10.83 (01:50) 0 0 0 0 0
26-03-2019 23.8 (12:30) 12.2 (00:00) 18 17.78 (15:40) 10.56 (14:10) 0 0 0 0 0
25-03-2019 25.3 (16:00) 10.8 (00:00) 18 10.56 (13:40) 5.28 (18:30) 0 0 0 0 0

Gráficas

Temp. máximas Temp. mínimas Temp. medias Precipitaciones Rachas de viento máximas Velocidades máximas media en intervalos de 10 minutos

Datos horarios

Fecha y hora oficial Temperatura (ºC) Velocidad del viento (km/h) Dirección del viento Racha (km/h) Dirección de racha Precipitación (mm) Presión (hPa) Tendencia (hPa) Humedad (%)
2019-04-23 23:00:00 14.4 22 Sudoeste 42 Sudoeste 0 -- -- 71
2019-04-23 22:00:00 14.5 27 Sudoeste 46 Sudoeste 0 -- -- 67
2019-04-23 21:00:00 14.7 29 Sudoeste 46 Oeste 0 -- -- 63
2019-04-23 20:00:00 15.6 29 Sudoeste 44 Sudoeste 0 -- -- 60
2019-04-23 19:00:00 16.4 29 Oeste 44 Sudoeste 0 -- -- 58
2019-04-23 18:00:00 16.5 28 Oeste 40 Sudoeste 0 -- -- 59
2019-04-23 17:00:00 17 23 Oeste 40 Oeste 0 -- -- 61
2019-04-23 16:00:00 16.7 25 Oeste 44 Oeste 0 -- -- 65
2019-04-23 15:00:00 16.6 26 Oeste 41 Oeste 0 -- -- 60
2019-04-23 14:00:00 16.6 21 Oeste 34 Oeste 0 -- -- 63
2019-04-23 13:00:00 15.8 19 Oeste 29 Oeste 0 -- -- 62
2019-04-23 12:00:00 15.2 19 Oeste 30 Oeste 0 -- -- 62
2019-04-23 11:00:00 14.9 19 Oeste 34 Oeste 0 -- -- 65
2019-04-23 10:00:00 13.9 21 Oeste 37 Noroeste 0 -- -- 69
2019-04-23 09:00:00 13.5 23 Oeste 38 Oeste 0 -- -- 71
2019-04-23 08:00:00 12.9 21 Oeste 36 Oeste 0 -- -- 81
2019-04-23 07:00:00 12.8 19 Oeste 35 Oeste 0.4 -- -- 89
2019-04-23 06:00:00 12.7 19 Noroeste 43 Noroeste 3.2 -- -- 95
2019-04-23 05:00:00 15.1 22 Sudoeste 39 Sudoeste 0.4 -- -- 88
2019-04-23 04:00:00 16.1 19 Sudoeste 35 Sudoeste 0.2 -- -- 85
2019-04-23 03:00:00 16.4 18 Sudoeste 33 Sudoeste 0 -- -- 79
2019-04-23 02:00:00 16.4 15 Sudoeste 31 Sudoeste 0 -- -- 80
2019-04-23 01:00:00 16.3 19 Sudoeste 36 Sudoeste 0 -- -- 82
2019-04-23 00:00:00 16.4 22 Sudoeste 36 Sudoeste 0 -- -- 81
2019-04-22 23:00:00 16.4 23 Sudoeste 43 Sudoeste 0 -- -- 80
2019-04-22 22:00:00 16.4 26 Sudoeste 45 Sudoeste 0 -- -- 80
2019-04-22 21:00:00 16.5 30 Sudoeste 49 Sudoeste 0 -- -- 82
2019-04-22 20:00:00 17.2 28 Sudoeste 50 Sudoeste 0 -- -- 83
2019-04-22 19:00:00 18.1 30 Sudoeste 50 Sudoeste 0 -- -- 81
2019-04-22 18:00:00 19.1 26 Sudoeste 43 Sudoeste 0 -- -- 80
2019-04-22 17:00:00 20.2 21 Sudoeste 34 Sudoeste 0 -- -- 75
2019-04-22 16:00:00 19.7 20 Sudoeste 30 Sudoeste 0 -- -- 75
2019-04-22 15:00:00 20.4 15 Sudoeste 26 Sudoeste 0 -- -- 70
2019-04-22 14:00:00 20 13 Sudoeste 22 Sudoeste 0 -- -- 72
2019-04-22 13:00:00 20 13 Sudoeste 25 Sudoeste 0 -- -- 75
2019-04-22 12:00:00 19.7 11 Sur 19 Sur 0 -- -- 76
2019-04-22 11:00:00 17 8 Sur 13 Sudeste 0 -- -- 93
2019-04-22 10:00:00 14.3 5 Sudeste 10 Sudeste 0 -- -- 95
2019-04-22 09:00:00 13.6 4 Este 7 Este 0 -- -- 95
2019-04-22 08:00:00 12.2 4 Este 7 Este 0 -- -- 95
2019-04-22 07:00:00 12.2 4 Este 9 Este 0 -- -- 92
2019-04-22 06:00:00 15.3 2 Norte 12 Oeste 0 -- -- 92
2019-04-22 05:00:00 16 7 Oeste 13 Oeste 0 -- -- 92
2019-04-22 04:00:00 14.4 5 Oeste 12 Oeste 0 -- -- 92
2019-04-22 03:00:00 14.8 0 Calma 9 Oeste 0 -- -- 87
2019-04-22 02:00:00 15.7 6 Oeste 9 Oeste 0 -- -- 87
2019-04-22 01:00:00 16.2 6 Oeste 18 Oeste 0 -- -- 88
2019-04-22 00:00:00 16.2 9 Oeste 15 Oeste 0 -- -- 83
2019-04-21 23:00:00 16.4 9 Oeste 21 Oeste 0 -- -- 83
2019-04-21 22:00:00 17 14 Noroeste 25 Oeste 0 -- -- 80
2019-04-21 21:00:00 16.8 17 Oeste 28 Oeste 0 -- -- 77
2019-04-21 20:00:00 18.1 17 Oeste 30 Oeste 0 -- -- 72
2019-04-21 19:00:00 19.5 17 Oeste 24 Oeste 0 -- -- 66
2019-04-21 18:00:00 20.6 11 Noroeste 23 Nordeste 0 -- -- 64
2019-04-21 17:00:00 21.6 11 Nordeste 23 Nordeste 0 -- -- 48
2019-04-21 16:00:00 20.5 9 Norte 19 Norte 0 -- -- 51
2019-04-21 15:00:00 21.2 12 Nordeste 27 Norte 0 -- -- 49
2019-04-21 14:00:00 20.2 10 Norte 30 Nordeste 0 -- -- 54
2019-04-21 13:00:00 19.7 16 Nordeste 31 Nordeste 0 -- -- 56
2019-04-21 12:00:00 18.7 13 Nordeste 28 Norte 0 -- -- 59
2019-04-21 11:00:00 17.2 10 Norte 21 Nordeste 0 -- -- 64
2019-04-21 10:00:00 15.3 9 Nordeste 18 Nordeste 0 -- -- 70
2019-04-21 09:00:00 14.3 10 Nordeste 18 Nordeste 0 -- -- 77
2019-04-21 08:00:00 13.7 4 Norte 10 Nordeste 0 -- -- 91
2019-04-21 07:00:00 13.3 0 Calma 4 Norte 0 -- -- 90
2019-04-21 06:00:00 12.6 4 Nordeste 8 Nordeste 0 -- -- 93
2019-04-21 05:00:00 12.7 0 Calma 3 Norte 0 -- -- 91
2019-04-21 04:00:00 13.4 2 Norte 5 Norte 0 -- -- 91
2019-04-21 03:00:00 13.3 2 Norte 5 Nordeste 0 -- -- 89
2019-04-21 02:00:00 14.1 2 Este 6 Este 0 -- -- 88
2019-04-21 01:00:00 14.9 5 Este 15 Este 0 -- -- 86
2019-04-21 00:00:00 15.5 6 Este 12 Este 0 -- -- 83
2019-04-20 23:00:00 16.3 7 Este 16 Este 0 -- -- 83
2019-04-20 22:00:00 16.6 6 Este 20 Este 0 -- -- 81
2019-04-20 21:00:00 17.4 17 Este 26 Este 0 -- -- 78
2019-04-20 20:00:00 20 17 Este 31 Norte 0 -- -- 65
2019-04-20 19:00:00 21.3 10 Norte 31 Norte 0 -- -- 55
2019-04-20 18:00:00 21.2 12 Norte 28 Norte 0 -- -- 58
2019-04-20 17:00:00 21 12 Norte 27 Nordeste 0 -- -- 57
2019-04-20 16:00:00 20.8 14 Norte 32 Nordeste 0 -- -- 56
2019-04-20 15:00:00 19.7 12 Norte 27 Norte 0 -- -- 59
2019-04-20 14:00:00 18.2 12 Norte 30 Nordeste 0 -- -- 64
2019-04-20 13:00:00 17.5 13 Norte 24 Norte 0 -- -- 68
2019-04-20 12:00:00 14.9 8 Norte 24 Norte 0 -- -- 79
2019-04-20 11:00:00 14 7 Norte 18 Norte 0 -- -- 83
2019-04-20 10:00:00 13.3 8 Norte 18 Nordeste 0 -- -- 87
2019-04-20 09:00:00 12.1 6 Norte 17 Nordeste 0 -- -- 93
2019-04-20 08:00:00 11.7 4 Norte 20 Norte 0 -- -- 95
2019-04-20 07:00:00 11.7 6 Norte 13 Norte 0 -- -- 94
2019-04-20 06:00:00 11.7 5 Nordeste 17 Nordeste 0 -- -- 94
2019-04-20 05:00:00 11.5 4 Norte 17 Nordeste 0 -- -- 94
2019-04-20 04:00:00 12.1 9 Nordeste 19 Norte 0 -- -- 93
2019-04-20 03:00:00 12.4 4 Norte 16 Norte 0 -- -- 94
2019-04-20 02:00:00 11.6 0 Calma -- -- 0 -- -- 91
2019-04-20 01:00:00 12.4 2 Nordeste 8 Este 0 -- -- 90
2019-04-20 00:00:00 13.3 3 Este 7 Nordeste 0 -- -- 90
2019-04-19 23:00:00 14.9 2 Este 9 Norte 0 -- -- 84
2019-04-19 22:00:00 16 4 Norte 12 Noroeste 0 -- -- 81
2019-04-19 21:00:00 16.1 8 Noroeste 15 Noroeste 0 -- -- 79
2019-04-19 20:00:00 16.7 9 Oeste 22 Oeste 0 -- -- 76
2019-04-19 19:00:00 17 11 Noroeste 18 Oeste 0 -- -- 77
2019-04-19 18:00:00 17.8 12 Oeste 25 Oeste 0 -- -- 70
2019-04-19 17:00:00 19.8 14 Sudoeste 27 Sudoeste 0 -- -- 62
2019-04-19 16:00:00 20.4 13 Sur 24 Sur 0 -- -- 60
2019-04-19 15:00:00 19.8 13 Sudoeste 24 Sudoeste 0 -- -- 56
2019-04-19 14:00:00 19.2 15 Oeste 21 Oeste 0 -- -- 60
2019-04-19 13:00:00 18.5 9 Noroeste 15 Oeste 0 -- -- 59
2019-04-19 12:00:00 17.6 7 Noroeste 12 Noroeste 0 -- -- 63
2019-04-19 11:00:00 15.8 5 Norte 14 Norte 0 -- -- 76
2019-04-19 10:00:00 14.9 6 Norte 11 Norte 0 -- -- 82
2019-04-19 09:00:00 12 2 Norte 6 Nordeste 0 -- -- 97
2019-04-19 08:00:00 9.8 5 Nordeste 6 Nordeste 0 -- -- 96
2019-04-19 07:00:00 10.2 5 Este 7 Nordeste 0 -- -- 95
2019-04-19 06:00:00 10.5 3 Este 4 Este 0 -- -- 94
2019-04-19 05:00:00 11.4 3 Este 4 Este 0 -- -- 92
2019-04-19 04:00:00 12.5 3 Nordeste 6 Nordeste 0 -- -- 90
2019-04-19 03:00:00 14.4 4 Oeste 14 Oeste 0 -- -- 86
2019-04-19 02:00:00 14.9 12 Oeste 23 Oeste 0 -- -- 83
2019-04-19 01:00:00 15.1 12 Oeste 21 Sudoeste 0 -- -- 85
2019-04-19 00:00:00 15.2 12 Oeste 19 Oeste 0 -- -- 84
2019-04-18 23:00:00 15.4 10 Oeste 21 Oeste 0 -- -- 83
2019-04-18 22:00:00 15.8 13 Oeste 21 Oeste 0 -- -- 81
2019-04-18 21:00:00 15.9 13 Oeste 26 Oeste 0 -- -- 82
2019-04-18 20:00:00 16.5 17 Oeste 27 Oeste 0 -- -- 78
2019-04-18 19:00:00 17.5 17 Oeste 29 Sudoeste 0 -- -- 74
2019-04-18 18:00:00 18.1 21 Oeste 31 Oeste 0 -- -- 73
2019-04-18 17:00:00 18.4 22 Oeste 36 Sudoeste 0 -- -- 74
2019-04-18 16:00:00 18.3 20 Sudoeste 33 Sudoeste 0 -- -- 71
2019-04-18 15:00:00 16.8 19 Sudoeste 31 Sudoeste 0 -- -- 81
2019-04-18 14:00:00 16.6 15 Sudoeste 27 Sur 0 -- -- 81
2019-04-18 13:00:00 16.6 12 Sur 22 Sur 0 -- -- 80
2019-04-18 12:00:00 16.2 11 Sur 17 Sur 0 -- -- 82
2019-04-18 11:00:00 15.5 8 Sudeste 16 Sur 0 -- -- 86
2019-04-18 10:00:00 13.7 9 Sudeste 27 Este 0.2 -- -- 91
2019-04-18 09:00:00 12.6 9 Este 12 Este 0 -- -- 95
2019-04-18 08:00:00 13.1 5 Este 8 Este 0.8 -- -- 93
2019-04-18 07:00:00 13.3 6 Noroeste 15 Sudoeste 0.8 -- -- 89
2019-04-18 06:00:00 13.5 13 Oeste 32 Oeste 0 -- -- 84
2019-04-18 05:00:00 14.2 0 Calma 8 Sudoeste 0 -- -- 87
2019-04-18 04:00:00 15.1 6 Sudoeste 17 Oeste 0 -- -- 86
2019-04-18 03:00:00 14.9 6 Sudoeste 16 Sudoeste 0 -- -- 83
2019-04-18 02:00:00 15.4 9 Sudoeste 18 Sudoeste 0 -- -- 81
2019-04-18 01:00:00 15.9 10 Sudoeste 18 Sudoeste 0 -- -- 78
2019-04-18 00:00:00 16.2 12 Sudoeste 27 Sur 0 -- -- 78
2019-04-17 23:00:00 17 12 Sudoeste 31 Sudoeste 0 -- -- 65
2019-04-17 22:00:00 16.3 9 Sur 21 Sudeste 0 -- -- 68
2019-04-17 21:00:00 16.2 15 Sudeste 24 Sudeste 0 -- -- 69
2019-04-17 20:00:00 16.3 8 Sudeste 18 Sudoeste 0 -- -- 71
2019-04-17 19:00:00 16.8 12 Sudoeste 27 Sudoeste 0 -- -- 65
2019-04-17 18:00:00 16.2 18 Oeste 39 Sudoeste 0 -- -- 75
2019-04-17 17:00:00 17.9 22 Sudoeste 37 Sudoeste 0 -- -- 72
2019-04-17 16:00:00 20.2 19 Sur 40 Sudeste 0 -- -- 73
2019-04-17 15:00:00 20.4 30 Sudeste 52 Sudeste 0 -- -- 68
2019-04-17 14:00:00 21.8 28 Sudeste 50 Sudeste 0 -- -- 65
2019-04-17 13:00:00 20.9 33 Sudeste 47 Sudeste 0 -- -- 65
2019-04-17 12:00:00 20.4 28 Sudeste 55 Sudeste 0 -- -- 68
2019-04-17 11:00:00 19 30 Sudeste 55 Sudeste 0 -- -- 71
2019-04-17 10:00:00 17.7 28 Sudeste 56 Sudeste 0 -- -- 76
2019-04-17 09:00:00 16.9 25 Sudeste 44 Sudeste 0 -- -- 77
2019-04-17 08:00:00 16.2 20 Sudeste 39 Sudeste 0 -- -- 78
2019-04-17 07:00:00 16.4 18 Sudeste 34 Sudeste 0 -- -- 72
2019-04-17 06:00:00 16.1 15 Sudeste 38 Sudeste 0 -- -- 75
2019-04-17 05:00:00 16.1 17 Sudeste 35 Sudeste 0 -- -- 75
2019-04-17 04:00:00 15.4 13 Sudeste 22 Sudeste 0 -- -- 74
2019-04-17 03:00:00 14.9 4 Sur 17 Sudeste 0 -- -- 73
2019-04-17 02:00:00 15.6 6 Sur 19 Sudeste 0 -- -- 73
2019-04-17 01:00:00 15 6 Sudeste 10 Sudeste 0 -- -- 73
2019-04-17 00:00:00 15.8 4 Sur 10 Sudoeste 0 -- -- 68
2019-04-16 23:00:00 16 4 Sudoeste 7 Sudoeste 0 -- -- 70
2019-04-16 22:00:00 16.4 3 Oeste 5 Sur 0 -- -- 80
2019-04-16 21:00:00 18.2 3 Sur 12 Sudoeste 0 -- -- 73
2019-04-16 20:00:00 20.2 8 Sudoeste 15 Oeste 0 -- -- 64
2019-04-16 19:00:00 20.1 11 Oeste 17 Oeste 0 -- -- 68
2019-04-16 18:00:00 20.3 11 Oeste 19 Oeste 0 -- -- 66
2019-04-16 17:00:00 20.4 13 Oeste 22 Oeste 0 -- -- 64
2019-04-16 16:00:00 19.9 16 Oeste 23 Oeste 0 -- -- 65
2019-04-16 15:00:00 20.2 16 Oeste 22 Oeste 0 -- -- 66
2019-04-16 14:00:00 20.1 14 Oeste 21 Sudoeste 0 -- -- 67
2019-04-16 13:00:00 19.7 10 Oeste 16 Oeste 0 -- -- 69
2019-04-16 12:00:00 18.1 8 Oeste 14 Oeste 0 -- -- 76
2019-04-16 11:00:00 17.2 5 Noroeste 10 Nordeste 0 -- -- 80
2019-04-16 10:00:00 16 0 Calma 5 Sudoeste 0 -- -- 84
2019-04-16 09:00:00 12.4 2 Nordeste 4 Este 0 -- -- 95
2019-04-16 08:00:00 10.1 2 Este 5 Sudeste 0 -- -- 93
2019-04-16 07:00:00 11 2 Sudeste 12 Este 0 -- -- 92
2019-04-16 06:00:00 12.7 4 Nordeste 8 Este 0 -- -- 88
2019-04-16 05:00:00 14.4 2 Noroeste 16 Noroeste 0 -- -- 84
2019-04-16 04:00:00 14.9 9 Noroeste 20 Noroeste 0 -- -- 83
2019-04-16 03:00:00 15.5 11 Oeste 19 Noroeste 0 -- -- 83
2019-04-16 02:00:00 16 12 Oeste 22 Oeste 0 -- -- 80
2019-04-16 01:00:00 16.2 12 Oeste 29 Oeste 0 -- -- 86
2019-04-16 00:00:00 16.3 22 Oeste 36 Sudoeste 0 -- -- 87
2019-04-15 23:00:00 16.3 23 Sudoeste 37 Sudoeste 0 -- -- 85
2019-04-15 22:00:00 16.4 24 Sudoeste 39 Sudoeste 0 -- -- 83
2019-04-15 21:00:00 16.6 21 Sudoeste 40 Sudoeste 0 -- -- 82
2019-04-15 20:00:00 17.8 26 Sudoeste 46 Sudoeste 0 -- -- 81
2019-04-15 19:00:00 18.9 25 Sudoeste 39 Sudoeste 0 -- -- 76
2019-04-15 18:00:00 19.6 25 Sudoeste 47 Sudoeste 0 -- -- 74
2019-04-15 17:00:00 20.1 30 Sudoeste 45 Sudoeste 0 -- -- 75
2019-04-15 16:00:00 21.5 16 Sudoeste 25 Sur 0 -- -- 68
2019-04-15 15:00:00 20.9 14 Sudoeste 26 Sudoeste 0 -- -- 67
2019-04-15 14:00:00 19.7 20 Oeste 28 Oeste 0 -- -- 76
2019-04-15 13:00:00 19.5 19 Oeste 27 Oeste 0 -- -- 79
2019-04-15 12:00:00 19.6 10 Sudoeste 17 Sudoeste 0 -- -- 77
2019-04-15 11:00:00 18.6 6 Sudoeste 16 Oeste 0 -- -- 76
2019-04-15 10:00:00 17.7 7 Oeste 10 Sudoeste 0 -- -- 87
2019-04-15 09:00:00 13.1 3 Sur 5 Sur 0 -- -- 95
2019-04-15 08:00:00 11.3 4 Sur -- -- 0 -- -- 92
2019-04-15 07:00:00 11.4 3 Sudeste 6 Sudeste 0 -- -- 91
2019-04-15 06:00:00 11.7 2 Sudoeste 4 Este 0 -- -- 89
2019-04-15 05:00:00 12.5 2 Noroeste 7 Este 0 -- -- 87
2019-04-15 04:00:00 13.3 3 Este 7 Este 0 -- -- 85
2019-04-15 03:00:00 13.9 5 Nordeste 8 Este 0 -- -- 86
2019-04-15 02:00:00 14.5 2 Nordeste 4 Este 0 -- -- 87
2019-04-15 01:00:00 15.6 0 Calma 6 Sudeste 0 -- -- 84
2019-04-15 00:00:00 16.9 0 Calma 4 Nordeste 0 -- -- 83
2019-04-14 23:00:00 17.9 2 Sudeste 3 Sudeste 0 -- -- 81
2019-04-14 22:00:00 18.4 2 Oeste 5 Noroeste 0 -- -- 79
2019-04-14 21:00:00 18.9 0 Calma 8 Oeste 0 -- -- 77
2019-04-14 20:00:00 19.5 6 Oeste 13 Oeste 0 -- -- 73
2019-04-14 19:00:00 21 10 Oeste 17 Oeste 0 -- -- 66
2019-04-14 18:00:00 21.6 14 Oeste 21 Sudoeste 0 -- -- 65
2019-04-14 17:00:00 22.7 15 Sudoeste 21 Sudoeste 0 -- -- 58
2019-04-14 16:00:00 23.1 12 Sudoeste 17 Sudoeste 0 -- -- 60
2019-04-14 15:00:00 22.9 12 Oeste 22 Oeste 0 -- -- 56
2019-04-14 14:00:00 23.5 8 Noroeste 14 Norte 0 -- -- 53
2019-04-14 13:00:00 22 7 Norte 13 Norte 0 -- -- 53
2019-04-14 12:00:00 20.5 5 Norte 13 Este 0 -- -- 64
2019-04-14 11:00:00 18.8 6 Este 10 Nordeste 0 -- -- 73
2019-04-14 10:00:00 16.3 3 Nordeste 8 Nordeste 0 -- -- 87
2019-04-14 09:00:00 13.1 3 Nordeste 5 Nordeste 0 -- -- 97
2019-04-14 08:00:00 10.7 2 Este 5 Este 0 -- -- 95
2019-04-14 07:00:00 11.1 0 Calma -- -- 0 -- -- 94
2019-04-14 06:00:00 11.5 3 Sudeste 6 Este 0 -- -- 95
2019-04-14 05:00:00 11.9 2 Sur 7 Este 0 -- -- 94
2019-04-14 04:00:00 12.4 4 Este 6 Este 0 -- -- 94
2019-04-14 03:00:00 13 2 Nordeste 4 Norte 0 -- -- 92
2019-04-14 02:00:00 13.9 2 Este 6 Sudoeste 0 -- -- 91
2019-04-14 01:00:00 15.2 3 Sudoeste 12 Oeste 0 -- -- 89
2019-04-14 00:00:00 15.8 6 Sudoeste 16 Sudoeste 0 -- -- 86
2019-04-13 23:00:00 16.2 10 Oeste 17 Oeste 0 -- -- 86
2019-04-13 22:00:00 16.5 11 Oeste 21 Oeste 0 -- -- 87
2019-04-13 21:00:00 16.9 15 Oeste 24 Oeste 0 -- -- 85
2019-04-13 20:00:00 18.3 15 Oeste 26 Sudoeste 0 -- -- 79
2019-04-13 19:00:00 19.7 14 Sudoeste 24 Sudoeste 0 -- -- 65
2019-04-13 18:00:00 19.8 15 Oeste 27 Oeste 0 -- -- 67
2019-04-13 17:00:00 19.8 17 Oeste 29 Sudoeste 0 -- -- 66
2019-04-13 16:00:00 20.8 15 Sudoeste 24 Sudoeste 0 -- -- 57
2019-04-13 15:00:00 20.7 14 Sudoeste 22 Sudoeste 0 -- -- 55
2019-04-13 14:00:00 20.9 14 Sudoeste 20 Sudoeste 0 -- -- 55
2019-04-13 13:00:00 20.1 8 Oeste 13 Oeste 0 -- -- 55
2019-04-13 12:00:00 18.8 5 Oeste 12 Oeste 0 -- -- 59
2019-04-13 11:00:00 18.2 3 Este 5 Sudeste 0 -- -- 60
2019-04-13 10:00:00 14.9 3 Norte 9 Nordeste 0 -- -- 71
2019-04-13 09:00:00 11.5 0 Calma 4 Nordeste 0 -- -- 90
2019-04-13 08:00:00 9.9 0 Calma 5 Nordeste 0 -- -- 88
2019-04-13 07:00:00 11.5 2 Nordeste 8 Norte 0 -- -- 83
2019-04-13 06:00:00 12.6 3 Este 8 Oeste 0 -- -- 83
2019-04-13 05:00:00 14.7 5 Noroeste 15 Oeste 0 -- -- 81
2019-04-13 04:00:00 15 10 Oeste 26 Oeste 0 -- -- 81
2019-04-13 03:00:00 15.8 14 Oeste 24 Oeste 0 -- -- 76
2019-04-13 02:00:00 16.4 12 Oeste 20 Oeste 0 -- -- 76
2019-04-13 01:00:00 16.2 11 Oeste 18 Oeste 0 -- -- 76
2019-04-13 00:00:00 16.1 11 Oeste 19 Oeste 0 -- -- 80
2019-04-12 23:00:00 16 10 Oeste 23 Oeste 0 -- -- 81
2019-04-12 22:00:00 16.2 13 Oeste 27 Oeste 0 -- -- 82
2019-04-12 21:00:00 16.5 17 Oeste 28 Oeste 0 -- -- 82
2019-04-12 20:00:00 18 17 Oeste 26 Oeste 0 -- -- 73
2019-04-12 19:00:00 18.8 17 Oeste 27 Oeste 0 -- -- 65
2019-04-12 18:00:00 19.2 19 Oeste 29 Oeste 0 -- -- 63
2019-04-12 17:00:00 20.2 20 Oeste 31 Oeste 0 -- -- 58
2019-04-12 16:00:00 19.5 22 Oeste 28 Oeste 0 -- -- 62
2019-04-12 15:00:00 19.3 17 Oeste 23 Sudoeste 0 -- -- 64
2019-04-12 14:00:00 19.9 11 Oeste 15 Oeste 0 -- -- 59
2019-04-12 13:00:00 19.2 7 Norte 12 Noroeste 0 -- -- 58
2019-04-12 12:00:00 17.2 6 Noroeste 15 Norte 0 -- -- 72
2019-04-12 11:00:00 15.4 6 Norte 11 Noroeste 0 -- -- 82
2019-04-12 10:00:00 13.6 5 Norte 9 Nordeste 0 -- -- 81
2019-04-12 09:00:00 11.6 3 Nordeste 8 Nordeste 0 -- -- 87
2019-04-12 08:00:00 9.9 3 Nordeste 5 Nordeste 0 -- -- 89
2019-04-12 07:00:00 11.1 0 Calma 7 Noroeste 0 -- -- 85
2019-04-12 06:00:00 11 0 Calma 5 Noroeste 0 -- -- 83
2019-04-12 05:00:00 12.1 2 Nordeste 10 Norte 0 -- -- 77
2019-04-12 04:00:00 14 6 Norte 14 Norte 0 -- -- 72
2019-04-12 03:00:00 13.4 2 Norte 10 Norte 0 -- -- 75
2019-04-12 02:00:00 15.6 6 Norte 25 Noroeste 0 -- -- 71
2019-04-12 01:00:00 16.3 14 Noroeste 25 Noroeste 0 -- -- 72
2019-04-12 00:00:00 16.3 16 Oeste 25 Oeste 0 -- -- 84
2019-04-11 23:00:00 15.8 5 Sudoeste 13 Sudoeste 0 -- -- 85
2019-04-11 22:00:00 16.2 11 Sudoeste 24 Sudoeste 0 -- -- 80
2019-04-11 21:00:00 16.2 17 Sudoeste 30 Sudoeste 0 -- -- 80
2019-04-11 20:00:00 17.1 21 Sudoeste 32 Sudoeste 0 -- -- 76
2019-04-11 19:00:00 18 21 Sudoeste 30 Sudoeste 0 -- -- 71
2019-04-11 18:00:00 19 14 Sudoeste 24 Oeste 0 -- -- 59
2019-04-11 17:00:00 18.6 18 Oeste 25 Oeste 0 -- -- 55
2019-04-11 16:00:00 18.6 14 Oeste 22 Sudoeste 0 -- -- 53
2019-04-11 15:00:00 17.9 15 Oeste 22 Oeste 0 -- -- 63
2019-04-11 14:00:00 17.3 13 Oeste 19 Noroeste 0 -- -- 60
2019-04-11 13:00:00 16.2 12 Noroeste 21 Oeste 0 -- -- 69
2019-04-11 12:00:00 15.5 9 Oeste 13 Oeste 0 -- -- 70
2019-04-11 11:00:00 14.6 5 Noroeste 10 Noroeste 0 -- -- 74
2019-04-11 10:00:00 13.4 3 Noroeste 9 Norte 0 -- -- 77
2019-04-11 09:00:00 12.8 3 Norte 12 Norte 0 -- -- 85
2019-04-11 08:00:00 12.1 5 Noroeste 17 Noroeste 0 -- -- 85
2019-04-11 07:00:00 12.5 7 Noroeste 21 Noroeste 0 -- -- 82
2019-04-11 06:00:00 13 10 Noroeste 23 Oeste 0 -- -- 80
2019-04-11 05:00:00 13.4 12 Noroeste 23 Noroeste 0 -- -- 77
2019-04-11 04:00:00 13.9 9 Noroeste 27 Noroeste 0 -- -- 74
2019-04-11 03:00:00 14.5 15 Noroeste 31 Noroeste 0 -- -- 74
2019-04-11 02:00:00 15.1 19 Noroeste 37 Noroeste 0 -- -- 76
2019-04-11 01:00:00 15.3 19 Noroeste 38 Noroeste 0 -- -- 82
2019-04-11 00:00:00 15.9 21 Noroeste 33 Oeste 0 -- -- 79
2019-04-10 23:00:00 16.3 21 Oeste 35 Oeste 0 -- -- 77
2019-04-10 22:00:00 16.5 18 Oeste 28 Oeste 0 -- -- 79
2019-04-10 21:00:00 16.6 17 Oeste 29 Sudoeste 0 -- -- 79
2019-04-10 20:00:00 17.7 21 Oeste 39 Sudoeste 0 -- -- 76
2019-04-10 19:00:00 17.8 25 Oeste 41 Sudoeste 0 -- -- 76
2019-04-10 18:00:00 18.1 28 Oeste 41 Sudoeste 0 -- -- 72
2019-04-10 17:00:00 18.2 25 Sudoeste 35 Oeste 0 -- -- 67
2019-04-10 16:00:00 17.7 24 Oeste 38 Oeste 0 -- -- 70
2019-04-10 15:00:00 17.1 24 Oeste 38 Oeste 0 -- -- 72
2019-04-10 14:00:00 16.1 25 Oeste 37 Oeste 0 -- -- 72
2019-04-10 13:00:00 15.6 20 Oeste 29 Oeste 0 -- -- 73
2019-04-10 12:00:00 15.1 17 Oeste 27 Noroeste 0 -- -- 75
2019-04-10 11:00:00 14.2 18 Noroeste 28 Oeste 0 -- -- 78
2019-04-10 10:00:00 13.6 14 Noroeste 26 Noroeste 0 -- -- 79
2019-04-10 09:00:00 12.7 11 Noroeste 28 Noroeste 0 -- -- 83
2019-04-10 08:00:00 12.3 14 Noroeste 27 Noroeste 0 -- -- 84
2019-04-10 07:00:00 12.3 14 Noroeste 25 Noroeste 0 -- -- 84
2019-04-10 06:00:00 12.4 6 Noroeste 28 Noroeste 0 -- -- 82
2019-04-10 05:00:00 12.9 17 Noroeste 35 Noroeste 0 -- -- 81
2019-04-10 04:00:00 13.4 18 Noroeste 32 Noroeste 0 -- -- 81
2019-04-10 03:00:00 13.8 19 Noroeste 37 Noroeste 0 -- -- 79
2019-04-10 02:00:00 14.2 21 Noroeste 41 Noroeste 0 -- -- 79
2019-04-10 01:00:00 14.7 21 Noroeste 41 Noroeste 0 -- -- 75
2019-04-10 00:00:00 15.4 26 Noroeste 41 Noroeste 0 -- -- 69
2019-04-09 23:00:00 15.8 18 Oeste 35 Oeste 0 -- -- 78
2019-04-09 22:00:00 15.7 23 Oeste 38 Oeste 0 -- -- 79
2019-04-09 21:00:00 16 23 Oeste 39 Oeste 0 -- -- 77
2019-04-09 20:00:00 16.6 23 Sudoeste 39 Sudoeste 0 -- -- 74
2019-04-09 19:00:00 17.3 24 Sudoeste 39 Sudoeste 0 -- -- 70
2019-04-09 18:00:00 17.5 25 Sudoeste 42 Oeste 0 -- -- 69
2019-04-09 17:00:00 18 24 Sudoeste 39 Sudoeste 0 -- -- 64
2019-04-09 16:00:00 18.1 25 Sudoeste 39 Sudoeste 0 -- -- 68
2019-04-09 15:00:00 17.5 23 Oeste 34 Oeste 0 -- -- 66
2019-04-09 14:00:00 17.6 19 Oeste 32 Oeste 0 -- -- 70
2019-04-09 13:00:00 17 19 Oeste 27 Oeste 0 -- -- 73
2019-04-09 12:00:00 16.4 18 Oeste 30 Oeste 0 -- -- 74
2019-04-09 11:00:00 16.3 18 Oeste 27 Oeste 0 -- -- 69
2019-04-09 10:00:00 15.5 17 Oeste 28 Oeste 0 -- -- 79
2019-04-09 09:00:00 14.9 15 Oeste 27 Oeste 0 -- -- 78
2019-04-09 08:00:00 14.3 15 Oeste 29 Oeste 0 -- -- 79
2019-04-09 07:00:00 14.2 14 Oeste 26 Oeste 0 -- -- 78
2019-04-09 06:00:00 14.2 14 Oeste 26 Oeste 0 -- -- 78
2019-04-09 05:00:00 14.3 17 Oeste 27 Oeste 0 -- -- 76
2019-04-09 04:00:00 14.3 15 Oeste 28 Noroeste 0 -- -- 77
2019-04-09 03:00:00 14.5 18 Oeste 32 Oeste 0 -- -- 72
2019-04-09 02:00:00 14.7 17 Oeste 31 Oeste 0 -- -- 73
2019-04-09 01:00:00 15.1 16 Oeste 32 Oeste 0 -- -- 75
2019-04-09 00:00:00 15.4 18 Oeste 33 Oeste 0 -- -- 81
2019-04-08 23:00:00 15.4 24 Oeste 37 Oeste 0 -- -- 79
2019-04-08 22:00:00 14.8 21 Sudoeste 33 Sudoeste 0 -- -- 87
2019-04-08 21:00:00 15.4 23 Sudoeste 40 Sudoeste 0 -- -- 78
2019-04-08 20:00:00 15.8 18 Sudoeste 36 Oeste 0 -- -- 85
2019-04-08 19:00:00 16.2 21 Sudoeste 37 Oeste 0 -- -- 87
2019-04-08 18:00:00 17 21 Sudoeste 35 Sudoeste 0 -- -- 87
2019-04-08 17:00:00 16.2 16 Sudoeste 30 Sur 0.2 -- -- 89
2019-04-08 16:00:00 16.2 16 Sudoeste 33 Sudoeste 0 -- -- 89
2019-04-08 15:00:00 15.9 20 Sudoeste 32 Sudoeste 0.2 -- -- 89
2019-04-08 14:00:00 15.6 18 Sudoeste 40 Sudoeste 2.8 -- -- 96
2019-04-08 13:00:00 18 22 Sudoeste 35 Sudoeste 0 -- -- 85
2019-04-08 12:00:00 17.4 20 Sudoeste 35 Sudoeste 0 -- -- 86
2019-04-08 11:00:00 16.9 16 Sudoeste 31 Sudoeste 0 -- -- 87
2019-04-08 10:00:00 16.4 14 Sudoeste 26 Sudoeste 0 -- -- 88
2019-04-08 09:00:00 15.9 13 Sudoeste 25 Sudoeste 0 -- -- 91
2019-04-08 08:00:00 15.5 16 Sudoeste 27 Sudoeste 0 -- -- 91
2019-04-08 07:00:00 15.2 12 Sudoeste 22 Sur 0 -- -- 92
2019-04-08 06:00:00 15.4 11 Sudoeste 19 Sudoeste 0 -- -- 95
2019-04-08 05:00:00 15.7 10 Sudoeste 21 Sur 0 -- -- 95
2019-04-08 04:00:00 15.7 9 Sudoeste 24 Sudoeste 0.2 -- -- 95
2019-04-08 03:00:00 15.7 12 Sudoeste 24 Sudoeste 0 -- -- 92
2019-04-08 02:00:00 15.6 10 Sudoeste 18 Sur 0 -- -- 94
2019-04-08 01:00:00 15.6 11 Sudoeste 26 Sudoeste 0 -- -- 92
2019-04-08 00:00:00 16 15 Sudoeste 26 Sudoeste 0 -- -- 93
2019-04-07 23:00:00 16.1 13 Sudoeste 26 Sudoeste 0 -- -- 94
2019-04-07 22:00:00 15.9 14 Sudoeste 31 Sudoeste 0 -- -- 93
2019-04-07 21:00:00 15.9 17 Sudoeste 33 Sudoeste 0 -- -- 90
2019-04-07 20:00:00 15.8 25 Sudoeste 45 Sudoeste 0 -- -- 90
2019-04-07 19:00:00 16.2 28 Sudoeste 50 Sudoeste 0 -- -- 89
2019-04-07 18:00:00 15.7 19 Sudoeste 37 Sudoeste 2.6 -- -- 98
2019-04-07 17:00:00 15.3 21 Sudoeste 38 Sudoeste 3.2 -- -- 97
2019-04-07 16:00:00 15.4 20 Sudoeste 47 Sudoeste 0.2 -- -- 92
2019-04-07 15:00:00 16.2 23 Sudoeste 47 Sudoeste 0.2 -- -- 81
2019-04-07 14:00:00 18.1 21 Sudoeste 37 Sudoeste 0 -- -- 62
2019-04-07 13:00:00 17.5 22 Sudoeste 34 Oeste 0 -- -- 66
2019-04-07 12:00:00 16.7 23 Sudoeste 35 Sudoeste 0 -- -- 66
2019-04-07 11:00:00 16.4 19 Oeste 29 Sudoeste 0 -- -- 67
2019-04-07 10:00:00 16 22 Oeste 35 Sudoeste 0 -- -- 68
2019-04-07 09:00:00 14.7 18 Oeste 31 Oeste 0 -- -- 73
2019-04-07 08:00:00 13.9 12 Oeste 32 Oeste 0 -- -- 80
2019-04-07 07:00:00 14.3 16 Oeste 28 Oeste 0 -- -- 76
2019-04-07 06:00:00 14.3 20 Oeste 32 Oeste 0 -- -- 68
2019-04-07 05:00:00 14.2 19 Oeste 34 Oeste 0 -- -- 76
2019-04-07 04:00:00 14.3 22 Oeste 35 Sudoeste 0 -- -- 71
2019-04-07 03:00:00 14.4 20 Oeste 35 Oeste 0 -- -- 74
2019-04-07 02:00:00 14.4 21 Oeste 35 Sudoeste 0 -- -- 70
2019-04-07 01:00:00 14.4 24 Oeste 38 Oeste 0 -- -- 68
2019-04-07 00:00:00 14.8 23 Oeste 37 Oeste 0 -- -- 69
2019-04-06 23:00:00 14.7 24 Oeste 47 Oeste 0 -- -- 69
2019-04-06 22:00:00 14.7 28 Oeste 47 Sudoeste 0 -- -- 73
2019-04-06 21:00:00 14.8 33 Oeste 51 Oeste 0 -- -- 68
2019-04-06 20:00:00 15.3 33 Oeste 51 Oeste 0 -- -- 68
2019-04-06 19:00:00 16.2 35 Oeste 53 Oeste 0 -- -- 63
2019-04-06 18:00:00 16.6 35 Oeste 52 Sudoeste 0 -- -- 62
2019-04-06 17:00:00 16.8 35 Sudoeste 50 Oeste 0 -- -- 59
2019-04-06 16:00:00 16.5 26 Sudoeste 41 Oeste 0 -- -- 66
2019-04-06 15:00:00 15.9 24 Sudoeste 39 Oeste 0 -- -- 71
2019-04-06 14:00:00 15.5 21 Oeste 35 Sudoeste 0 -- -- 72
2019-04-06 13:00:00 15.2 22 Oeste 37 Oeste 0 -- -- 69
2019-04-06 12:00:00 15.1 23 Oeste 35 Oeste 0 -- -- 67
2019-04-06 11:00:00 14.6 21 Oeste 33 Oeste 0 -- -- 70
2019-04-06 10:00:00 13.7 17 Oeste 32 Oeste 0 -- -- 71
2019-04-06 09:00:00 13.1 23 Oeste 39 Oeste 0 -- -- 73
2019-04-06 08:00:00 12.9 22 Oeste 42 Oeste 0 -- -- 75
2019-04-06 07:00:00 11.7 21 Oeste 44 Oeste 0.6 -- -- 75
2019-04-06 06:00:00 12.2 24 Oeste 46 Oeste 0.2 -- -- 80
2019-04-06 05:00:00 13.3 22 Oeste 31 Oeste 0 -- -- 69
2019-04-06 04:00:00 13.3 19 Oeste 36 Oeste 0 -- -- 71
2019-04-06 03:00:00 13.4 23 Oeste 38 Oeste 0 -- -- 69
2019-04-06 02:00:00 13.4 25 Oeste 42 Oeste 0 -- -- 69
2019-04-06 01:00:00 13.3 23 Oeste 45 Oeste 0 -- -- 69
2019-04-06 00:00:00 13.1 27 Oeste 47 Oeste 0 -- -- 69
2019-04-05 23:00:00 13.1 25 Oeste 45 Oeste 0 -- -- 66
2019-04-05 22:00:00 13.7 30 Oeste 46 Oeste 0 -- -- 67
2019-04-05 21:00:00 13.6 31 Oeste 56 Oeste 0 -- -- 67
2019-04-05 20:00:00 14 34 Oeste 53 Oeste 0 -- -- 72
2019-04-05 19:00:00 14.2 36 Oeste 53 Oeste 0 -- -- 69
2019-04-05 18:00:00 14.1 32 Oeste 57 Oeste 0.4 -- -- 74
2019-04-05 17:00:00 15.2 27 Oeste 39 Oeste 0 -- -- 63
2019-04-05 16:00:00 14.7 26 Oeste 40 Oeste 0 -- -- 61
2019-04-05 15:00:00 14.3 29 Oeste 44 Oeste 0 -- -- 68
2019-04-05 14:00:00 14.2 27 Oeste 39 Oeste 0 -- -- 66
2019-04-05 13:00:00 13.7 25 Oeste 45 Oeste 0 -- -- 68
2019-04-05 12:00:00 13.2 28 Oeste 45 Oeste 0 -- -- 74
2019-04-05 11:00:00 13.1 26 Oeste 47 Oeste 0.4 -- -- 81
2019-04-05 10:00:00 13.7 22 Sudoeste 40 Oeste 0.8 -- -- 85
2019-04-05 09:00:00 12 25 Sudoeste 45 Oeste 2.6 -- -- 92
2019-04-05 08:00:00 13 18 Sudoeste 42 Sudoeste 0.2 -- -- 83
2019-04-05 07:00:00 12.6 24 Sudoeste 50 Sudoeste 2 -- -- 90
2019-04-05 06:00:00 13.6 21 Sudoeste 42 Sudoeste 0.4 -- -- 88
2019-04-05 05:00:00 12.9 18 Sudoeste 40 Sudoeste 1.8 -- -- 92
2019-04-05 04:00:00 12.5 8 Sudoeste 40 Sudoeste 1.4 -- -- 90
2019-04-05 03:00:00 14.1 17 Sudoeste 32 Sudoeste 0 -- -- 71
2019-04-05 02:00:00 13.9 16 Sudoeste 32 Sudoeste 0 -- -- 67
2019-04-05 01:00:00 14.3 20 Oeste 39 Oeste 0 -- -- 67
2019-04-05 00:00:00 14.4 26 Oeste 45 Sudoeste 0 -- -- 63
2019-04-04 23:00:00 14.6 29 Oeste 46 Oeste 0 -- -- 67
2019-04-04 22:00:00 14.7 28 Sudoeste 43 Sudoeste 0 -- -- 62
2019-04-04 21:00:00 14.8 23 Sudoeste 37 Sudoeste 0 -- -- 59
2019-04-04 20:00:00 15.6 22 Sudoeste 36 Sudoeste 0 -- -- 48
2019-04-04 19:00:00 16.2 24 Sudoeste 35 Sudoeste 0 -- -- 51
2019-04-04 18:00:00 16.8 22 Sudoeste 32 Sudoeste 0 -- -- 38
2019-04-04 17:00:00 16.8 20 Oeste 30 Oeste 0 -- -- 46
2019-04-04 16:00:00 16.4 20 Oeste 31 Oeste 0 -- -- 52
2019-04-04 15:00:00 16.6 18 Oeste 26 Sudoeste 0 -- -- 49
2019-04-04 14:00:00 16.1 15 Oeste 23 Oeste 0 -- -- 51
2019-04-04 13:00:00 16 13 Oeste 20 Oeste 0 -- -- 51
2019-04-04 12:00:00 15.5 6 Noroeste 12 Oeste 0 -- -- 47
2019-04-04 11:00:00 13.7 4 Norte 13 Norte 0 -- -- 52
2019-04-04 10:00:00 12 5 Norte 12 Norte 0 -- -- 64
2019-04-04 09:00:00 10.7 4 Norte 14 Norte 0 -- -- 69
2019-04-04 08:00:00 11.1 6 Norte 19 Noroeste 0 -- -- 69
2019-04-04 07:00:00 11.7 9 Noroeste 20 Norte 0 -- -- 76
2019-04-04 06:00:00 11.8 7 Noroeste 22 Noroeste 0 -- -- 74
2019-04-04 05:00:00 12.1 10 Noroeste 26 Noroeste 0 -- -- 72
2019-04-04 04:00:00 12.7 12 Noroeste 31 Noroeste 0 -- -- 69
2019-04-04 03:00:00 13.5 18 Noroeste 38 Oeste 0 -- -- 64
2019-04-04 02:00:00 14.4 23 Noroeste 39 Noroeste 0 -- -- 59
2019-04-04 01:00:00 15.4 19 Noroeste 37 Noroeste 0 -- -- 56
2019-04-04 00:00:00 16.4 18 Noroeste 30 Noroeste 0 -- -- 55
2019-04-03 23:00:00 16.8 18 Oeste 26 Oeste 0 -- -- 61
2019-04-03 22:00:00 16.2 16 Oeste 25 Oeste 0 -- -- 77
2019-04-03 21:00:00 16.4 17 Oeste 27 Oeste 0 -- -- 75
2019-04-03 20:00:00 17.5 18 Oeste 29 Sudoeste 0 -- -- 68
2019-04-03 19:00:00 18.6 19 Oeste 30 Oeste 0 -- -- 66
2019-04-03 18:00:00 19.6 18 Oeste 28 Oeste 0 -- -- 56
2019-04-03 17:00:00 19.5 20 Oeste 32 Oeste 0 -- -- 57
2019-04-03 16:00:00 19.4 19 Oeste 30 Oeste 0 -- -- 60
2019-04-03 15:00:00 19.3 20 Oeste 34 Oeste 0 -- -- 58
2019-04-03 14:00:00 18.8 18 Oeste 24 Oeste 0 -- -- 63
2019-04-03 13:00:00 17.6 14 Oeste 21 Oeste 0 -- -- 74
2019-04-03 12:00:00 16.9 7 Oeste 13 Oeste 0 -- -- 79
2019-04-03 11:00:00 14.8 5 Noroeste 11 Noroeste 0 -- -- 88
2019-04-03 10:00:00 13.2 6 Norte 11 Noroeste 0 -- -- 95
2019-04-03 09:00:00 11.9 3 Norte 9 Nordeste 0 -- -- 99
2019-04-03 08:00:00 9.7 0 Calma 4 Norte 0 -- -- 96
2019-04-03 07:00:00 10.6 2 Nordeste 6 Este 0 -- -- 96
2019-04-03 06:00:00 11.3 3 Este 6 Nordeste 0 -- -- 95
2019-04-03 05:00:00 12.6 3 Este 8 Este 0 -- -- 91
2019-04-03 04:00:00 15.2 5 Oeste 10 Oeste -- -- -- 92
2019-04-03 03:00:00 15.2 5 Oeste 12 Oeste 0 -- -- 90
2019-04-03 02:00:00 15.9 6 Oeste 13 Oeste 0 -- -- 89
2019-04-03 01:00:00 15.8 6 Oeste 15 Oeste 0 -- -- 90
2019-04-03 00:00:00 15.8 9 Oeste 17 Oeste 0 -- -- 90
2019-04-02 23:00:00 15.9 11 Oeste 24 Oeste 0 -- -- 92
2019-04-02 22:00:00 16.3 14 Oeste 20 Oeste 0 -- -- 87
2019-04-02 21:00:00 16.4 10 Oeste 19 Oeste 0 -- -- 84
2019-04-02 20:00:00 17.2 12 Oeste 19 Oeste 0 -- -- 83
2019-04-02 19:00:00 17.8 12 Oeste 21 Oeste 0 -- -- 80
2019-04-02 18:00:00 19.5 15 Oeste 21 Oeste 0 -- -- 74
2019-04-02 17:00:00 20.1 13 Oeste 19 Oeste 0 -- -- 69
2019-04-02 16:00:00 19 13 Oeste 18 Oeste 0 -- -- 74
2019-04-02 15:00:00 20.2 10 Noroeste 17 Noroeste 0 -- -- 63
2019-04-02 14:00:00 19.7 7 Norte 16 Norte 0 -- -- 65
2019-04-02 13:00:00 19.1 9 Norte 20 Nordeste 0 -- -- 68
2019-04-02 12:00:00 17.4 6 Este 15 Este 0 -- -- 76
2019-04-02 11:00:00 16.1 8 Nordeste 12 Este 0 -- -- 84
2019-04-02 10:00:00 13.6 7 Este 11 Este 0 -- -- 97
2019-04-02 09:00:00 11.2 8 Este 12 Este 0 -- -- 98
2019-04-02 08:00:00 10.9 7 Este 10 Este 0 -- -- 98
2019-04-02 07:00:00 10.7 5 Este 9 Este 0 -- -- 97
2019-04-02 06:00:00 10.9 4 Este 8 Sudeste 0 -- -- 97
2019-04-02 05:00:00 10.9 5 Este 10 Este 0 -- -- 96
2019-04-02 04:00:00 10.9 4 Sudeste 6 Sudeste 0 -- -- 94
2019-04-02 03:00:00 11.5 3 Sudeste 5 Sudeste 0 -- -- 93
2019-04-02 02:00:00 12.4 3 Sudeste 7 Sur 0 -- -- 92
2019-04-02 01:00:00 12.6 4 Sudeste 5 Sudeste 0 -- -- 91
2019-04-02 00:00:00 13.9 3 Sudeste 9 Sudoeste 0 -- -- 88
2019-04-01 23:00:00 15.2 5 Sudoeste 13 Sudoeste 0 -- -- 85
2019-04-01 22:00:00 16 7 Sudoeste 17 Sudoeste 0 -- -- 85
2019-04-01 21:00:00 16.5 8 Sudoeste 17 Sur 0 -- -- 84
2019-04-01 20:00:00 17.8 11 Sudoeste 25 Sudoeste 0 -- -- 79
2019-04-01 19:00:00 18.8 16 Sudoeste 28 Sudoeste 0 -- -- 73
2019-04-01 18:00:00 19.7 14 Sudoeste 31 Sudoeste 0 -- -- 70
2019-04-01 17:00:00 19.8 19 Sudoeste 33 Sur 0 -- -- 70
2019-04-01 16:00:00 19.8 20 Sudoeste 36 Sudoeste 0 -- -- 71
2019-04-01 15:00:00 20.1 20 Sur 36 Sur 0 -- -- 69
2019-04-01 14:00:00 20.1 21 Sur 32 Sur 0 -- -- 69
2019-04-01 13:00:00 19.6 14 Sur 30 Sur 0 -- -- 71
2019-04-01 12:00:00 18.5 14 Sur 27 Sur 0 -- -- 78
2019-04-01 11:00:00 17.3 14 Sur 23 Sur 0 -- -- 84
2019-04-01 10:00:00 16.6 9 Sur 18 Sudoeste 0 -- -- 88
2019-04-01 09:00:00 14.4 8 Sudoeste 14 Sudoeste 0 -- -- 96
2019-04-01 08:00:00 13.4 4 Sur 5 Sur 0 -- -- 97
2019-04-01 07:00:00 14.1 4 Sur 9 Sur 0 -- -- 97
2019-04-01 06:00:00 14.2 6 Sur 9 Sudeste 0 -- -- 97
2019-04-01 05:00:00 14.2 6 Este 11 Este 0 -- -- 97
2019-04-01 04:00:00 14.3 6 Este 12 Este 0 -- -- 96
2019-04-01 03:00:00 13.8 4 Este 11 Este 0 -- -- 95
2019-04-01 02:00:00 14.4 7 Sudeste 16 Sudeste 0 -- -- 94
2019-04-01 01:00:00 14.8 10 Sudeste 15 Sur 0 -- -- 94
2019-04-01 00:00:00 15.7 8 Sudeste 17 Sur 0 -- -- 93
2019-03-31 23:00:00 16.3 9 Sudeste 13 Sudeste 0 -- -- 93
2019-03-31 22:00:00 16.7 6 Sur 14 Sudoeste 0 -- -- 91
2019-03-31 21:00:00 16.9 5 Sur 19 Sur 0 -- -- 89
2019-03-31 20:00:00 18 12 Sur 27 Sudoeste 0 -- -- 82
2019-03-31 19:00:00 19.2 14 Sudoeste 25 Sur 0 -- -- 74
2019-03-31 18:00:00 19.9 13 Sur 27 Sudoeste 0 -- -- 70
2019-03-31 17:00:00 21 14 Sur 22 Sur 0 -- -- 66
2019-03-31 16:00:00 18.4 11 Sudoeste 21 Sudoeste 0 -- -- 72
2019-03-31 15:00:00 18.3 17 Oeste 21 Oeste 0 -- -- 72
2019-03-31 14:00:00 17.9 14 Oeste 18 Oeste 0 -- -- 71
2019-03-31 13:00:00 18.7 11 Oeste 18 Sudoeste 0 -- -- 67
2019-03-31 12:00:00 17.8 4 Nordeste 7 Nordeste 0 -- -- 70
2019-03-31 11:00:00 15.7 2 Este 7 Este 0 -- -- 79
2019-03-31 10:00:00 14.5 4 Sudeste 8 Sudeste 0 -- -- 84
2019-03-31 09:00:00 13.7 3 Sudeste 8 Sudeste 0 -- -- 85
2019-03-31 08:00:00 13.1 3 Este 6 Este 0 -- -- 85
2019-03-31 07:00:00 13.9 4 Este 6 Este 0 -- -- 83
2019-03-31 06:00:00 14.1 5 Este 7 Este 0 -- -- 84
2019-03-31 05:00:00 14.5 3 Este 10 Este 0 -- -- 82
2019-03-31 03:00:00 15 6 Este 15 Este 0 -- -- 77
2019-03-31 01:00:00 15.3 5 Este 16 Este 0 -- -- 77
2019-03-31 00:00:00 15 10 Este 29 Sudeste 0 -- -- 79
2019-03-30 23:00:00 15.2 15 Sudeste 26 Sudeste 0 -- -- 78
2019-03-30 22:00:00 14.9 11 Sudeste 21 Este 0 -- -- 79
2019-03-30 21:00:00 15.2 9 Sudeste 34 Este 0 -- -- 77
2019-03-30 20:00:00 16.1 19 Sudeste 45 Este 0 -- -- 74
2019-03-30 19:00:00 17.1 27 Sudeste 51 Este 0 -- -- 69
2019-03-30 18:00:00 18.1 27 Sudeste 46 Este 0 -- -- 66
2019-03-30 17:00:00 19.9 28 Sudeste 45 Sudeste 0 -- -- 60
2019-03-30 16:00:00 21.4 26 Sudeste 41 Sudeste 0 -- -- 56
2019-03-30 15:00:00 23.1 18 Este 30 Este 0 -- -- 48
2019-03-30 14:00:00 22.6 19 Este 31 Este 0 -- -- 48
2019-03-30 13:00:00 21.9 12 Este 29 Este 0 -- -- 50
2019-03-30 12:00:00 20.5 17 Este 30 Este 0 -- -- 52
2019-03-30 11:00:00 18.5 17 Este 29 Este 0 -- -- 58
2019-03-30 10:00:00 15.8 12 Nordeste 20 Nordeste 0 -- -- 66
2019-03-30 09:00:00 13.8 7 Nordeste 15 Nordeste 0 -- -- 74
2019-03-30 08:00:00 11.9 3 Norte 11 Nordeste 0 -- -- 76
2019-03-30 07:00:00 11.1 7 Nordeste 12 Nordeste 0 -- -- 77
2019-03-30 06:00:00 11.4 7 Nordeste 17 Nordeste 0 -- -- 75
2019-03-30 05:00:00 11.3 7 Nordeste 10 Nordeste 0 -- -- 76
2019-03-30 04:00:00 12.9 3 Norte 27 Este 0 -- -- 74
2019-03-30 03:00:00 12.9 7 Nordeste 18 Este 0 -- -- 72
2019-03-30 02:00:00 14.4 16 Este 47 Este 0 -- -- 63
2019-03-30 01:00:00 14.6 30 Este 51 Este 0 -- -- 68
2019-03-30 00:00:00 14.5 26 Este 46 Este 0 -- -- 68
2019-03-29 23:00:00 14.4 23 Este 42 Este 0 -- -- 68
2019-03-29 22:00:00 14.5 19 Este 39 Este 0 -- -- 71
2019-03-29 21:00:00 14.9 21 Este 38 Este 0 -- -- 69
2019-03-29 20:00:00 15.9 21 Sudeste 40 Sudeste 0 -- -- 64
2019-03-29 19:00:00 17.8 22 Este 40 Este 0 -- -- 59
2019-03-29 18:00:00 18.8 28 Este 44 Este 0 -- -- 54
2019-03-29 17:00:00 19.2 24 Sudeste 39 Sudeste 0 -- -- 54
2019-03-29 16:00:00 18.5 23 Sudeste 42 Sudeste 0 -- -- 58
2019-03-29 15:00:00 20.2 31 Este 53 Este 0 -- -- 52
2019-03-29 14:00:00 21.3 25 Sudeste 43 Sudeste 0 -- -- 50
2019-03-29 13:00:00 20.3 19 Este 42 Este 0 -- -- 52
2019-03-29 12:00:00 19.6 25 Este 45 Este 0 -- -- 54
2019-03-29 11:00:00 18.8 22 Este 39 Este 0 -- -- 56
2019-03-29 10:00:00 16.5 10 Este 20 Nordeste 0 -- -- 62
2019-03-29 09:00:00 13.1 5 Nordeste 10 Norte 0 -- -- 68
2019-03-29 08:00:00 9 5 Nordeste 9 Nordeste 0 -- -- 80
2019-03-29 07:00:00 8.5 5 Nordeste 12 Nordeste 0 -- -- 81
2019-03-29 06:00:00 8.8 7 Nordeste 13 Este 0 -- -- 79
2019-03-29 05:00:00 9.5 6 Nordeste 14 Este 0 -- -- 77
2019-03-29 04:00:00 9 3 Norte 8 Este 0 -- -- 78
2019-03-29 03:00:00 7.9 0 Calma 5 Sur 0 -- -- 74
2019-03-29 02:00:00 8.5 3 Norte 10 Este 0 -- -- 68
2019-03-29 01:00:00 8.7 4 Nordeste 9 Norte 0 -- -- 66
2019-03-29 00:00:00 9.6 3 Sudeste 9 Nordeste 0 -- -- 64
2019-03-28 23:00:00 11.1 5 Nordeste 8 Nordeste 0 -- -- 56
2019-03-28 22:00:00 12.6 4 Este 18 Este 0 -- -- 52
2019-03-28 21:00:00 14.1 8 Este 18 Este 0 -- -- 48
2019-03-28 20:00:00 15.9 12 Este 32 Sudeste 0 -- -- 50
2019-03-28 19:00:00 18.3 23 Sudeste 44 Este 0 -- -- 46
2019-03-28 18:00:00 19.9 26 Este 50 Sudeste 0 -- -- 44
2019-03-28 17:00:00 21.1 25 Este 44 Este 0 -- -- 41
2019-03-28 16:00:00 21.4 26 Este 46 Sudeste 0 -- -- 41
2019-03-28 15:00:00 21.6 26 Sudeste 41 Sudeste 0 -- -- 41
2019-03-28 14:00:00 22 18 Sudeste 36 Sudeste 0 -- -- 41
2019-03-28 13:00:00 20.8 16 Sudeste 28 Este 0 -- -- 39
2019-03-28 12:00:00 19.5 11 Este 26 Este 0 -- -- 41
2019-03-28 11:00:00 18.2 12 Sudeste 31 Este 0 -- -- 49
2019-03-28 10:00:00 15.7 8 Nordeste 19 Nordeste 0 -- -- 56
2019-03-28 09:00:00 13.1 8 Nordeste 14 Nordeste 0 -- -- 65
2019-03-28 08:00:00 8.5 5 Este 9 Nordeste 0 -- -- 80
2019-03-28 07:00:00 8.7 6 Nordeste 11 Nordeste 0 -- -- 78
2019-03-28 06:00:00 9.3 5 Norte 12 Nordeste 0 -- -- 75
2019-03-28 05:00:00 9 4 Nordeste 9 Nordeste 0 -- -- 74
2019-03-28 04:00:00 10.2 4 Nordeste 13 Nordeste 0 -- -- 71
2019-03-28 03:00:00 11.2 4 Nordeste 13 Norte 0 -- -- 74
2019-03-28 02:00:00 12.7 4 Norte 33 Este 0 -- -- 69
2019-03-28 01:00:00 13.9 21 Este 37 Este 0 -- -- 66
2019-03-28 00:00:00 14 22 Este 43 Sudeste 0 -- -- 66
2019-03-27 23:00:00 14.2 24 Este 49 Sudeste 0 -- -- 64
2019-03-27 22:00:00 14.3 27 Este 50 Este 0 -- -- 61
2019-03-27 21:00:00 14.6 26 Este 46 Sudeste 0 -- -- 60
2019-03-27 20:00:00 15.4 28 Sudeste 54 Este 0 -- -- 55
2019-03-27 19:00:00 17.2 30 Sudeste 53 Sudeste 0 -- -- 50
2019-03-27 18:00:00 19.1 30 Sudeste 51 Sudeste 0 -- -- 41
2019-03-27 17:00:00 20.1 31 Este 54 Este 0 -- -- 37
2019-03-27 16:00:00 21.1 28 Este 51 Sudeste 0 -- -- 34
2019-03-27 15:00:00 21.2 27 Sudeste 43 Este 0 -- -- 32
2019-03-27 14:00:00 20.9 24 Este 41 Este 0 -- -- 33
2019-03-27 13:00:00 20.5 24 Este 43 Nordeste 0 -- -- 36
2019-03-27 12:00:00 19.2 30 Este 49 Este 0 -- -- 41
2019-03-27 11:00:00 18.6 25 Este 43 Este 0 -- -- 44
2019-03-27 10:00:00 16.9 19 Este 33 Este 0 -- -- 50
2019-03-27 09:00:00 15.2 15 Este 24 Este 0 -- -- 55
2019-03-27 08:00:00 13.2 8 Este 26 Este 0 -- -- 59
2019-03-27 07:00:00 13.8 15 Este 27 Este 0 -- -- 58
2019-03-27 06:00:00 13.4 12 Este 23 Este 0 -- -- 60
2019-03-27 05:00:00 13.8 15 Este 42 Este 0 -- -- 61
2019-03-27 04:00:00 14.5 25 Este 46 Este 0 -- -- 59
2019-03-27 03:00:00 15 25 Este 45 Este 0 -- -- 50
2019-03-27 02:00:00 15.5 32 Este 58 Este 0 -- -- 51
2019-03-27 01:00:00 15.6 31 Este 53 Este 0 -- -- 51
2019-03-27 00:00:00 15.9 30 Este 53 Este 0 -- -- 59
2019-03-26 23:00:00 16.3 30 Este 54 Este 0 -- -- 66
2019-03-26 22:00:00 16.3 21 Este 48 Sudeste 0 -- -- 65
2019-03-26 21:00:00 16.5 25 Este 45 Sudeste 0 -- -- 65
2019-03-26 20:00:00 17.3 23 Este 40 Este 0 -- -- 60
2019-03-26 19:00:00 18.9 18 Este 39 Este 0 -- -- 51
2019-03-26 18:00:00 19.6 20 Este 47 Este 0 -- -- 47
2019-03-26 17:00:00 20.4 32 Este 59 Sudeste 0 -- -- 43
2019-03-26 16:00:00 21 35 Este 64 Este 0 -- -- 41
2019-03-26 15:00:00 22 37 Este 62 Este 0 -- -- 38
2019-03-26 14:00:00 22.8 36 Este 59 Este 0 -- -- 39
2019-03-26 13:00:00 23.2 25 Este 46 Este 0 -- -- 43
2019-03-26 12:00:00 23 26 Este 44 Este 0 -- -- 44
2019-03-26 11:00:00 20.9 10 Nordeste 15 Nordeste 0 -- -- 50
2019-03-26 10:00:00 16.8 4 Norte 11 Nordeste 0 -- -- 64
2019-03-26 09:00:00 15 5 Nordeste 9 Norte 0 -- -- 67
2019-03-26 08:00:00 12.6 5 Nordeste 11 Nordeste 0 -- -- 75
2019-03-26 07:00:00 12.3 5 Nordeste 9 Nordeste 0 -- -- 77
2019-03-26 06:00:00 12.6 4 Norte 9 Norte 0 -- -- 73
2019-03-26 05:00:00 13 4 Nordeste 15 Nordeste 0 -- -- 69
2019-03-26 04:00:00 13.6 7 Nordeste 13 Nordeste 0 -- -- 71
2019-03-26 03:00:00 13.7 4 Nordeste 12 Nordeste 0 -- -- 70
2019-03-26 02:00:00 13.8 4 Nordeste 9 Norte 0 -- -- 72
2019-03-26 01:00:00 14.4 4 Nordeste 11 Nordeste 0 -- -- 67
2019-03-26 00:00:00 14.6 6 Este 12 Este 0 -- -- 65
2019-03-25 23:00:00 15 9 Este 13 Este 0 -- -- 64
2019-03-25 22:00:00 15.8 9 Este 19 Este 0 -- -- 61
2019-03-25 21:00:00 17.1 13 Este 20 Este 0 -- -- 58
2019-03-25 20:00:00 18.8 12 Este 33 Sudeste 0 -- -- 55
2019-03-25 19:00:00 21.3 19 Este 33 Este 0 -- -- 50
2019-03-25 18:00:00 23.7 17 Sudeste 29 Sudeste 0 -- -- 45
2019-03-25 17:00:00 24.3 5 Noroeste 25 Nordeste 0 -- -- 49
2019-03-25 16:00:00 25.3 10 Este 29 Este 0 -- -- 41
2019-03-25 15:00:00 24.7 11 Nordeste 31 Nordeste 0 -- -- 41
2019-03-25 14:00:00 24.1 15 Este 38 Este 0 -- -- 43
2019-03-25 13:00:00 23 15 Nordeste 31 Nordeste 0 -- -- 44
2019-03-25 12:00:00 21.1 8 Norte 18 Norte 0 -- -- 52
2019-03-25 11:00:00 18.9 8 Norte 17 Nordeste 0 -- -- 58
2019-03-25 10:00:00 16.6 9 Nordeste 18 Nordeste 0 -- -- 65
2019-03-25 09:00:00 13.9 7 Nordeste 14 Nordeste 0 -- -- 72
2019-03-25 08:00:00 11.2 6 Nordeste 13 Nordeste 0 -- -- 77
2019-03-25 07:00:00 11 6 Nordeste 12 Norte 0 -- -- 77
2019-03-25 06:00:00 10.9 5 Nordeste 14 Nordeste 0 -- -- 78
2019-03-25 05:00:00 11.2 7 Nordeste 13 Nordeste 0 -- -- 80
2019-03-25 04:00:00 11.7 4 Nordeste 9 Nordeste 0 -- -- 80
2019-03-25 03:00:00 11.5 4 Nordeste 10 Nordeste 0 -- -- 73
2019-03-25 02:00:00 11.3 5 Este 7 Nordeste 0 -- -- 77
2019-03-25 01:00:00 11.7 5 Nordeste 9 Nordeste 0 -- -- 76
2019-03-25 00:00:00 12.3 6 Nordeste 8 Este 0 -- -- 73